Time;durP1;ratioP1;P1;durP2;ratioP2;P2;SDS_P1;SDS_P2;PMS_P1;PMS_P2;Temp;Humidity;BMP_temperature;BMP_pressure;BME280_temperature;BME280_humidity;BME280_pressure;Samples;Min_cycle;Max_cycle;Signal;HPM_P1;HPM_P2
2023/01/24 00:00:13;;;;;;;14.60;9.90;;;;;;;-143.84;82.75;44268.44;5013579;28;21127;-76
2023/01/24 00:02:41;;;;;;;16.40;10.30;;;;;;;-143.84;82.84;44247.50;5013395;28;20443;-76
2023/01/24 00:05:09;;;;;;;15.40;10.53;;;;;;;-143.84;82.56;44274.16;5013882;28;20443;-76
2023/01/24 00:07:36;;;;;;;24.07;10.60;;;;;;;-143.84;82.91;44295.09;5012297;28;20451;-77
2023/01/24 00:10:05;;;;;;;11.47;8.60;;;;;;;-143.84;82.72;44236.09;5012091;28;20445;-74
2023/01/24 00:12:32;;;;;;;17.10;10.90;;;;;;;-143.84;82.75;44251.31;5012160;28;20443;-74
2023/01/24 00:14:59;;;;;;;15.07;9.47;;;;;;;-143.84;82.99;44239.91;5012092;28;20514;-74
2023/01/24 00:17:26;;;;;;;15.60;9.93;;;;;;;-143.84;82.67;44199.91;5012160;28;20514;-74
2023/01/24 00:19:55;;;;;;;14.83;9.90;;;;;;;-143.84;82.87;44203.72;5011042;28;20444;-74
2023/01/24 00:22:22;;;;;;;17.03;10.53;;;;;;;-143.84;82.67;44270.34;5012272;28;20956;-74
2023/01/24 00:24:49;;;;;;;14.03;9.70;;;;;;;-143.84;82.61;44218.94;5012014;28;20507;-74
2023/01/24 00:27:16;;;;;;;15.30;10.67;;;;;;;-143.84;82.33;44300.81;5012104;28;20451;-75
2023/01/24 00:29:43;;;;;;;17.43;11.10;;;;;;;-143.84;82.68;44255.13;5011686;28;20439;-75
2023/01/24 00:32:11;;;;;;;17.63;11.30;;;;;;;-143.84;83.13;44222.75;5011726;28;20510;-75
2023/01/24 00:34:38;;;;;;;27.63;11.47;;;;;;;-143.84;83.01;44169.47;5011727;28;20479;-74
2023/01/24 00:37:07;;;;;;;21.33;10.53;;;;;;;-143.84;83.33;44148.53;5011790;28;20496;-74
2023/01/24 00:39:34;;;;;;;16.93;10.87;;;;;;;-143.84;83.12;44140.91;5011885;28;20487;-74
2023/01/24 00:42:01;;;;;;;18.50;11.47;;;;;;;-143.84;83.43;44095.22;5011651;28;20447;-74
2023/01/24 00:44:29;;;;;;;18.20;10.87;;;;;;;-143.84;83.78;44066.66;5011594;28;20452;-74
2023/01/24 00:46:56;;;;;;;16.90;10.23;;;;;;;-143.84;83.49;44066.66;5011155;28;20451;-74
2023/01/24 00:49:23;;;;;;;21.00;11.93;;;;;;;-143.84;83.61;44040.00;5012737;28;20448;-77
2023/01/24 00:51:50;;;;;;;17.90;11.80;;;;;;;-143.84;83.26;44019.06;5012792;28;20872;-77
2023/01/24 00:54:20;;;;;;;17.17;10.60;;;;;;;-143.84;83.59;44032.41;5012504;28;20550;-77
2023/01/24 00:56:47;;;;;;;20.60;10.93;;;;;;;-143.84;83.72;44024.78;5012749;28;20510;-72
2023/01/24 00:59:14;;;;;;;18.23;11.00;;;;;;;-143.84;83.75;44022.88;5011225;28;20440;-72
2023/01/24 01:01:41;;;;;;;18.60;10.57;;;;;;;-143.84;84.14;44015.25;5010953;28;20511;-72
2023/01/24 01:04:08;;;;;;;17.07;10.60;;;;;;;-143.84;84.49;43979.09;5010928;28;20506;-72
2023/01/24 01:06:35;;;;;;;18.10;11.33;;;;;;;-143.84;84.05;43961.97;5011165;28;20448;-72
2023/01/24 01:09:03;;;;;;;17.20;10.70;;;;;;;-143.84;84.79;43948.63;5012149;28;20439;-81
2023/01/24 01:11:31;;;;;;;23.40;11.30;;;;;;;-143.84;84.19;43967.69;5012247;28;20435;-76
2023/01/24 01:13:58;;;;;;;18.77;11.77;;;;;;;-143.84;84.30;43935.31;5011008;28;20510;-77
2023/01/24 01:16:26;;;;;;;20.97;11.87;;;;;;;-143.84;84.82;43906.75;5011246;28;20492;-72
2023/01/24 01:18:56;;;;;;;17.20;11.40;;;;;;;-143.84;84.57;43914.38;5010780;28;20436;-72
2023/01/24 01:21:24;;;;;;;20.50;11.93;;;;;;;-143.84;85.17;43904.84;5010873;28;20509;-74
2023/01/24 01:23:51;;;;;;;19.93;10.90;;;;;;;-143.84;84.97;43939.13;5010689;28;20510;-74
2023/01/24 01:26:21;;;;;;;18.17;10.87;;;;;;;-143.84;84.97;43918.19;5010565;28;20502;-74
2023/01/24 01:28:50;;;;;;;19.97;10.87;;;;;;;-143.84;84.65;43885.81;5011312;28;21128;-73
2023/01/24 01:31:17;;;;;;;17.03;11.30;;;;;;;-143.84;85.02;43937.22;5010192;28;21015;-72
2023/01/24 01:33:45;;;;;;;19.90;11.73;;;;;;;-143.84;84.83;43956.25;5011165;28;20458;-77
2023/01/24 01:36:12;;;;;;;16.73;11.53;;;;;;;-143.84;84.84;43944.84;5012055;28;20501;-77
2023/01/24 01:38:39;;;;;;;22.00;11.70;;;;;;;-143.84;85.17;43904.84;5012474;28;21023;-81
2023/01/24 01:41:06;;;;;;;15.83;11.00;;;;;;;-143.84;85.30;43929.59;5012661;28;20439;-81
2023/01/24 01:43:34;;;;;;;18.10;11.43;;;;;;;-143.84;85.28;43916.28;5012157;28;20482;-81
2023/01/24 01:46:17;;;;;;;22.17;12.97;;;;;;;-143.84;85.58;43893.44;5012004;28;21026;-81
2023/01/24 01:48:48;;;;;;;22.90;12.37;;;;;;;-143.84;85.47;43920.09;5012324;28;20491;-81
2023/01/24 01:51:20;;;;;;;19.53;11.33;;;;;;;-143.84;85.36;43910.56;5012418;28;20506;-81
2023/01/24 01:53:53;;;;;;;16.67;10.87;;;;;;;-143.84;85.44;43904.84;5012115;28;20771;-81
2023/01/24 01:56:26;;;;;;;27.83;11.83;;;;;;;-143.84;85.22;43885.81;4994679;28;21010;-78
2023/01/24 01:58:56;;;;;;;19.77;11.27;;;;;;;-143.84;85.60;43906.75;4993865;28;20522;-77
2023/01/24 02:01:25;;;;;;;22.10;12.40;;;;;;;-143.84;85.12;43906.75;5010274;28;20439;-77
2023/01/24 02:04:00;;;;;;;21.23;12.63;;;;;;;-143.84;85.25;43899.16;5011133;28;20532;-77
2023/01/24 02:06:51;;;;;;;19.97;12.03;;;;;;;-143.84;85.35;43920.09;5011506;28;20437;-77
2023/01/24 02:09:21;;;;;;;21.50;12.10;;;;;;;-143.84;85.13;43916.28;5010634;28;20448;-77
2023/01/24 02:11:51;;;;;;;24.40;12.93;;;;;;;-143.84;85.08;43895.34;5010436;28;20463;-77
2023/01/24 02:17:06;;;;;;;21.30;11.30;;;;;;;-143.84;85.67;43889.63;5011635;28;20423;-77
2023/01/24 02:19:51;;;;;;;28.13;13.43;;;;;;;-143.84;85.62;43889.63;5011290;28;20435;-77
2023/01/24 02:22:24;;;;;;;19.53;11.60;;;;;;;-143.84;85.23;43904.84;5011203;28;20596;-77
2023/01/24 02:25:03;;;;;;;25.73;12.90;;;;;;;-143.84;85.34;43912.47;5011394;28;20439;-77
2023/01/24 02:27:32;;;;;;;21.93;11.50;;;;;;;-143.84;85.06;43918.19;5011550;28;20525;-77
2023/01/24 02:30:00;;;;;;;21.63;12.60;;;;;;;-143.84;85.37;43883.91;5011358;28;20447;-77
2023/01/24 02:32:27;;;;;;;23.43;12.60;;;;;;;-143.84;85.62;43912.47;5011680;28;20451;-77
2023/01/24 02:34:54;;;;;;;26.40;12.90;;;;;;;-143.84;85.26;43916.28;5011163;28;21082;-77
2023/01/24 02:37:21;;;;;;;22.77;12.47;;;;;;;-143.84;85.49;43874.41;5011084;28;20519;-77
2023/01/24 02:39:55;;;;;;;18.90;12.50;;;;;;;-143.84;85.34;43895.34;5011017;28;21194;-77
2023/01/24 02:42:27;;;;;;;19.33;10.83;;;;;;;-143.84;85.44;43899.16;5008143;28;20996;-77
2023/01/24 02:45:02;;;;;;;16.00;11.20;;;;;;;-143.84;85.18;43910.56;5009412;28;20440;-74
2023/01/24 02:47:34;;;;;;;22.93;12.03;;;;;;;-143.84;85.14;43876.31;5009135;28;20511;-74
2023/01/24 02:50:01;;;;;;;23.57;12.53;;;;;;;-143.84;85.47;43880.13;5010276;28;20439;-77
2023/01/24 02:55:13;;;;;;;22.00;11.60;;;;;;;-143.84;84.98;43904.84;5011148;28;20478;-77
2023/01/24 03:00:27;;;;;;;18.57;11.63;;;;;;;-143.84;84.87;43923.91;5008648;28;20944;-73
2023/01/24 03:02:54;;;;;;;21.80;11.50;;;;;;;-143.84;84.86;43950.53;5008861;28;20946;-73
2023/01/24 03:05:21;;;;;;;19.37;11.40;;;;;;;-143.84;84.63;43906.75;5008876;28;20961;-73
2023/01/24 03:07:48;;;;;;;22.20;11.43;;;;;;;-143.84;84.94;43946.75;5009029;28;20945;-72
2023/01/24 03:10:17;;;;;;;19.80;12.30;;;;;;;-143.84;84.82;43973.38;5008842;28;20927;-72
2023/01/24 03:34:50;;;;;;;19.53;12.10;;;;;;;-143.84;84.19;43981.00;5008737;28;20431;-72
2023/01/24 03:39:53;;;;;;;18.70;10.17;;;;;;;-143.84;83.99;43956.25;5008497;28;20540;-72
2023/01/24 03:40:08;;;;;;;21.67;12.83;;;;;;;-143.84;84.40;43958.16;5008740;28;20529;-72
2023/01/24 03:42:46;;;;;;;24.40;12.70;;;;;;;-143.84;84.53;43944.84;5008696;28;20447;-72
2023/01/24 03:45:16;;;;;;;22.57;11.90;;;;;;;-143.84;84.37;43956.25;5008656;28;20992;-72
2023/01/24 03:47:54;;;;;;;18.73;11.03;;;;;;;-143.84;84.67;43992.41;5008208;28;20488;-72
2023/01/24 03:53:08;;;;;;;19.13;11.70;;;;;;;-143.84;84.43;43971.47;5008441;28;20809;-75
2023/01/24 03:55:35;;;;;;;21.90;12.20;;;;;;;-143.84;84.92;43923.91;5011837;28;20482;-74
2023/01/24 03:58:03;;;;;;;18.80;11.80;;;;;;;-143.84;85.31;43902.97;5012427;28;21020;-74
2023/01/24 04:00:30;;;;;;;20.87;11.50;;;;;;;-143.84;85.34;43933.41;5012545;28;20809;-74
2023/01/24 04:02:59;;;;;;;18.03;12.00;;;;;;;-143.84;85.09;43927.69;5011910;28;20436;-74
2023/01/24 04:05:26;;;;;;;18.30;12.13;;;;;;;-143.84;84.97;43922.00;5012414;28;20450;-74
2023/01/24 04:07:54;;;;;;;24.60;13.10;;;;;;;-143.84;85.14;43922.00;5012121;28;20440;-74
2023/01/24 04:10:22;;;;;;;22.03;12.40;;;;;;;-143.84;84.70;43941.03;5012038;28;20835;-74
2023/01/24 04:12:49;;;;;;;19.10;11.83;;;;;;;-143.84;84.85;43971.47;5011999;28;20459;-74
2023/01/24 04:15:19;;;;;;;26.53;13.30;;;;;;;-143.84;84.88;43935.31;5012288;28;20484;-75
2023/01/24 04:17:46;;;;;;;22.73;12.10;;;;;;;-143.84;84.75;43963.88;5011872;28;20440;-75
2023/01/24 04:20:15;;;;;;;20.87;12.57;;;;;;;-143.84;84.31;44003.84;5012029;28;20888;-75
2023/01/24 04:22:43;;;;;;;24.13;12.70;;;;;;;-143.84;84.11;44100.94;5011993;28;20526;-74
2023/01/24 04:25:10;;;;;;;22.20;12.87;;;;;;;-143.84;84.07;43986.72;5011771;28;20507;-74
2023/01/24 04:27:38;;;;;;;19.97;12.50;;;;;;;-143.84;83.61;44055.25;5011441;28;20452;-74
2023/01/24 04:30:06;;;;;;;22.83;13.20;;;;;;;-143.84;83.23;44150.41;5011636;28;20950;-75
2023/01/24 04:32:33;;;;;;;26.90;13.17;;;;;;;-143.84;83.78;44080.00;5011777;28;20949;-74
2023/01/24 04:35:03;;;;;;;17.47;12.23;;;;;;;-143.84;83.23;44177.06;5011585;28;20436;-74
2023/01/24 04:37:32;;;;;;;22.57;11.90;;;;;;;-143.84;82.95;44228.47;5011411;28;20448;-74
2023/01/24 04:40:01;;;;;;;20.77;11.70;;;;;;;-143.84;83.24;44209.44;5011540;28;20985;-74
2023/01/24 04:42:28;;;;;;;24.00;12.20;;;;;;;-143.84;82.52;44268.44;5010793;28;20963;-75
2023/01/24 04:44:55;;;;;;;17.10;11.27;;;;;;;-143.84;82.82;44333.19;5011160;28;20485;-74
2023/01/24 04:47:22;;;;;;;21.47;12.50;;;;;;;-143.84;82.55;44323.66;5011348;28;20490;-74
2023/01/24 04:49:49;;;;;;;20.83;13.37;;;;;;;-143.84;82.19;44386.47;5011006;28;20455;-75
2023/01/24 04:52:16;;;;;;;19.70;12.73;;;;;;;-143.84;82.21;44434.09;5011073;28;21020;-74
2023/01/24 04:54:45;;;;;;;25.70;13.40;;;;;;;-143.84;82.07;44512.13;4999830;28;20628;-75
2023/01/24 04:57:15;;;;;;;18.10;12.33;;;;;;;-143.84;82.47;44466.44;5006218;28;21000;-74
2023/01/24 04:59:42;;;;;;;22.40;13.47;;;;;;;-143.84;82.33;44375.06;5010675;28;20440;-74
2023/01/24 05:02:09;;;;;;;24.60;11.93;;;;;;;-143.84;81.96;44483.56;5011177;28;20447;-74
2023/01/24 05:04:36;;;;;;;21.83;13.20;;;;;;;-143.84;82.18;44531.19;5011472;28;20837;-74
2023/01/24 05:07:04;;;;;;;25.87;12.97;;;;;;;-143.84;82.18;44508.31;4981266;28;20465;-74
2023/01/24 05:09:32;;;;;;;20.07;11.53;;;;;;;-143.84;82.59;44500.72;4978238;28;20440;-74
2023/01/24 05:12:01;;;;;;;22.03;12.37;;;;;;;-143.84;82.81;44316.03;5016426;28;20506;-74
2023/01/24 05:14:28;;;;;;;18.80;11.60;;;;;;;-143.84;82.50;44401.72;5010781;28;20451;-75
2023/01/24 05:16:55;;;;;;;21.67;12.40;;;;;;;-143.84;82.27;44439.78;5010461;28;20530;-74
2023/01/24 05:19:22;;;;;;;22.97;12.93;;;;;;;-143.84;81.97;44485.47;5010792;28;20439;-74
2023/01/24 05:21:49;;;;;;;20.57;12.80;;;;;;;-143.84;82.32;44413.13;5007218;28;20444;-75
2023/01/24 05:24:18;;;;;;;19.67;12.00;;;;;;;-143.84;83.07;44258.94;5007392;28;20479;-76
2023/01/24 05:26:45;;;;;;;26.63;14.53;;;;;;;-143.84;82.47;44319.84;4989307;28;20447;-74
2023/01/24 05:29:13;;;;;;;23.10;11.77;;;;;;;-143.84;82.35;44384.59;4989395;28;20937;-74
2023/01/24 05:31:41;;;;;;;25.90;13.43;;;;;;;-143.84;82.06;44495.00;5003293;28;20440;-81
2023/01/24 05:34:08;;;;;;;22.87;12.83;;;;;;;-143.84;81.79;44496.91;5010885;28;20447;-76
2023/01/24 05:36:35;;;;;;;23.57;14.07;;;;;;;-143.84;82.32;44443.59;5009533;28;20490;-75
2023/01/24 05:39:03;;;;;;;23.10;13.37;;;;;;;-143.84;82.17;44437.88;5010622;28;20451;-75
2023/01/24 05:41:30;;;;;;;21.90;12.83;;;;;;;-143.84;82.42;44460.72;5009934;28;20486;-75
2023/01/24 05:43:57;;;;;;;19.80;11.83;;;;;;;-143.84;82.00;44472.16;5006507;28;20456;-75
2023/01/24 05:46:25;;;;;;;19.50;11.80;;;;;;;-143.84;82.23;44544.50;4990721;28;21223;-74
2023/01/24 05:48:53;;;;;;;21.13;11.93;;;;;;;-143.84;82.23;44515.94;5024412;28;20482;-74
2023/01/24 05:51:20;;;;;;;21.63;13.00;;;;;;;-143.84;82.27;44527.38;5028841;28;20520;-75
2023/01/24 05:53:48;;;;;;;19.80;13.00;;;;;;;-143.84;82.25;44527.38;5029963;28;20537;-75
2023/01/24 05:56:17;;;;;;;18.70;11.60;;;;;;;-143.84;81.54;44594.00;5029462;28;20478;-74
2023/01/24 05:58:45;;;;;;;19.20;12.40;;;;;;;-143.84;81.90;44592.09;5029808;28;20447;-74
2023/01/24 06:01:16;;;;;;;23.73;13.23;;;;;;;-143.84;81.78;44649.22;5029676;28;20450;-74
2023/01/24 06:03:46;;;;;;;18.87;12.27;;;;;;;-143.84;81.79;44630.19;5029640;28;20443;-74
2023/01/24 06:06:15;;;;;;;22.37;13.17;;;;;;;-143.84;81.51;44586.38;5029756;28;20438;-74
2023/01/24 06:08:42;;;;;;;21.20;13.27;;;;;;;-143.84;81.80;44639.69;5029552;28;20504;-74
2023/01/24 06:11:12;;;;;;;21.13;12.07;;;;;;;-143.84;80.99;44662.53;5029820;28;20447;-74
2023/01/24 06:13:40;;;;;;;20.43;12.50;;;;;;;-143.84;80.95;44694.91;5029297;28;21300;-74
2023/01/24 06:16:10;;;;;;;23.63;12.20;;;;;;;-143.84;81.19;44740.59;5028754;28;20916;-74
2023/01/24 06:18:37;;;;;;;21.97;13.70;;;;;;;-143.84;81.42;44736.81;5027537;28;20447;-74
2023/01/24 06:21:23;;;;;;;19.40;11.83;;;;;;;-143.84;81.11;44744.41;5028452;28;20967;-74
2023/01/24 06:23:51;;;;;;;23.43;12.30;;;;;;;-143.84;81.10;44752.03;5029039;28;20524;-74
2023/01/24 06:26:19;;;;;;;20.10;12.53;;;;;;;-143.84;80.58;44835.81;5029154;28;20498;-74
2023/01/24 06:28:46;;;;;;;18.93;12.10;;;;;;;-143.84;80.59;44830.09;5029106;28;20944;-74
2023/01/24 06:31:24;;;;;;;19.47;12.27;;;;;;;-143.84;79.93;44898.66;5029269;28;20451;-76
2023/01/24 06:34:09;;;;;;;22.63;12.80;;;;;;;-143.84;80.13;44891.03;5029662;28;20447;-75
2023/01/24 06:36:53;;;;;;;17.20;12.40;;;;;;;-143.84;79.74;44965.28;5028978;28;20486;-76
2023/01/24 06:39:21;;;;;;;21.47;12.10;;;;;;;-143.84;79.81;44953.88;5029112;28;20482;-76
2023/01/24 06:41:49;;;;;;;23.30;11.90;;;;;;;-143.84;79.54;44961.47;5020990;28;20439;-74
2023/01/24 06:44:17;;;;;;;19.23;11.10;;;;;;;-143.84;79.22;45018.59;5029091;28;20438;-74
2023/01/24 06:46:44;;;;;;;18.90;10.10;;;;;;;-143.84;78.35;45043.34;5016461;28;20459;-74
2023/01/24 06:49:12;;;;;;;23.87;12.30;;;;;;;-143.84;77.82;45071.91;5008913;28;20479;-74
2023/01/24 06:51:39;;;;;;;20.40;10.80;;;;;;;-143.84;78.07;45098.56;5009506;28;20439;-74
2023/01/24 06:54:08;;;;;;;17.37;10.27;;;;;;;-143.84;77.59;45087.16;5009073;28;20444;-73
2023/01/24 06:56:35;;;;;;;19.57;11.33;;;;;;;-143.84;77.85;45085.25;5008895;28;20491;-74
2023/01/24 06:59:02;;;;;;;21.73;11.07;;;;;;;-143.84;78.13;45077.63;5009072;28;20498;-74
2023/01/24 07:01:29;;;;;;;20.73;10.87;;;;;;;-143.84;78.34;45075.72;5009007;28;20452;-74
2023/01/24 07:03:56;;;;;;;21.53;11.20;;;;;;;-143.84;78.25;45070.00;5009363;28;20583;-74
2023/01/24 07:06:23;;;;;;;19.90;10.20;;;;;;;-143.84;77.97;45064.31;5008942;28;20443;-74
2023/01/24 07:08:51;;;;;;;19.97;11.30;;;;;;;-143.84;77.82;45056.69;5009192;28;20518;-74
2023/01/24 07:11:19;;;;;;;20.07;10.83;;;;;;;-143.84;78.10;45049.06;5008829;28;20807;-74
2023/01/24 07:13:46;;;;;;;19.20;11.13;;;;;;;-143.84;78.11;45041.44;5009062;28;20510;-74
2023/01/24 07:16:13;;;;;;;21.30;10.87;;;;;;;-143.84;77.87;45083.34;5008729;28;20483;-74
2023/01/24 07:18:41;;;;;;;21.03;10.60;;;;;;;-143.84;78.32;45030.03;5008825;28;20511;-74
2023/01/24 07:21:09;;;;;;;17.73;11.47;;;;;;;-143.84;78.46;45031.94;5008524;28;20443;-74
2023/01/24 07:23:39;;;;;;;20.93;11.30;;;;;;;-143.84;78.96;45022.41;5008714;28;20463;-74
2023/01/24 07:26:10;;;;;;;24.10;12.10;;;;;;;-143.84;78.15;45075.72;5008914;28;20465;-74
2023/01/24 07:28:39;;;;;;;18.13;11.17;;;;;;;-143.84;77.88;45081.44;5009032;28;20883;-74
2023/01/24 07:31:08;;;;;;;18.20;11.30;;;;;;;-143.84;77.68;45062.41;5012815;28;20447;-74
2023/01/24 07:33:35;;;;;;;22.50;11.57;;;;;;;-143.84;77.17;45115.72;5012625;28;20509;-74
2023/01/24 07:36:11;;;;;;;16.80;11.10;;;;;;;-143.84;77.40;45085.25;5012472;28;20447;-74
2023/01/24 07:38:38;;;;;;;18.30;11.10;;;;;;;-143.84;77.00;45163.31;5012702;28;20443;-74
2023/01/24 07:41:08;;;;;;;19.30;10.70;;;;;;;-143.84;76.51;45155.69;5012178;28;20447;-74
2023/01/24 07:43:35;;;;;;;19.17;10.67;;;;;;;-143.84;75.98;45153.81;5012081;28;20443;-74
2023/01/24 07:46:04;;;;;;;19.60;11.10;;;;;;;-143.84;76.00;45170.94;5012404;28;20852;-74
2023/01/24 07:48:31;;;;;;;19.80;10.50;;;;;;;-143.84;76.03;45184.25;5012216;28;20896;-74
2023/01/24 07:51:00;;;;;;;18.27;10.33;;;;;;;-143.84;75.88;45157.59;5012831;28;20447;-74
2023/01/24 07:53:27;;;;;;;21.03;11.20;;;;;;;-143.84;75.77;45142.38;5012643;28;20446;-74
2023/01/24 07:55:54;;;;;;;19.50;11.63;;;;;;;-143.84;75.51;45186.16;5012235;28;20443;-74
2023/01/24 07:58:24;;;;;;;20.27;10.43;;;;;;;-143.84;76.04;45176.66;5012399;28;20491;-74
2023/01/24 08:00:51;;;;;;;18.50;10.03;;;;;;;-143.84;75.95;45144.28;5012579;28;20460;-77
2023/01/24 08:03:20;;;;;;;25.93;11.77;;;;;;;-143.84;75.41;45169.03;5012266;28;20497;-76
2023/01/24 08:05:47;;;;;;;17.43;10.37;;;;;;;-143.84;75.48;45189.97;5012824;28;20513;-76
2023/01/24 08:08:14;;;;;;;22.43;11.90;;;;;;;-143.84;75.67;45189.97;5012196;28;20984;-76
2023/01/24 08:10:41;;;;;;;17.80;10.77;;;;;;;-143.84;75.59;45146.19;5012193;28;20964;-76
2023/01/24 08:13:08;;;;;;;17.53;10.23;;;;;;;-143.84;75.56;45174.75;5012196;28;20542;-76
2023/01/24 08:15:35;;;;;;;16.37;10.10;;;;;;;-143.84;75.91;45163.31;5012364;28;20511;-76
2023/01/24 08:18:03;;;;;;;16.73;9.60;;;;;;;-143.84;76.15;45150.00;5012250;28;20487;-76
2023/01/24 08:20:31;;;;;;;20.03;9.97;;;;;;;-143.84;75.41;45169.03;5012186;28;20439;-76
2023/01/24 08:22:59;;;;;;;15.67;10.43;;;;;;;-143.84;75.31;45172.84;5012568;28;20522;-77
2023/01/24 08:25:26;;;;;;;17.27;9.67;;;;;;;-143.84;75.04;45170.94;5012248;28;20444;-77
2023/01/24 08:27:54;;;;;;;20.20;10.57;;;;;;;-143.84;75.64;45161.41;5012323;28;20506;-77
2023/01/24 08:30:21;;;;;;;17.57;10.50;;;;;;;-143.84;75.50;45172.84;5012065;28;20443;-77
2023/01/24 08:32:48;;;;;;;22.43;11.83;;;;;;;-143.84;74.72;45195.69;5012010;28;20439;-77
2023/01/24 08:35:16;;;;;;;16.83;10.10;;;;;;;-143.84;75.09;45210.94;5012343;28;20870;-77
2023/01/24 08:37:45;;;;;;;16.80;9.20;;;;;;;-143.84;74.94;45191.88;5012265;28;20506;-77
2023/01/24 08:40:12;;;;;;;15.57;8.57;;;;;;;-143.84;74.87;45170.94;5011088;28;20885;-76
2023/01/24 08:42:39;;;;;;;19.93;11.17;;;;;;;-143.84;74.65;45172.84;5011737;28;20824;-76
2023/01/24 08:45:08;;;;;;;19.57;8.40;;;;;;;-143.84;74.75;45184.25;5011496;28;20886;-74
2023/01/24 08:47:37;;;;;;;11.80;8.53;;;;;;;-143.84;74.30;45172.84;5011291;28;20473;-74
2023/01/24 08:50:05;;;;;;;16.57;9.77;;;;;;;-143.84;74.32;45188.06;5011235;28;20445;-72
2023/01/24 08:52:32;;;;;;;17.87;10.07;;;;;;;-143.84;74.14;45169.03;5011132;28;20511;-72
2023/01/24 08:55:01;;;;;;;16.67;9.60;;;;;;;-143.84;73.67;45224.25;5011171;28;20441;-72
2023/01/24 08:57:28;;;;;;;13.70;8.80;;;;;;;-143.84;73.67;45186.16;5011104;28;20515;-72
2023/01/24 08:59:56;;;;;;;13.80;9.13;;;;;;;-143.84;73.79;45201.41;5011268;28;20502;-72
2023/01/24 09:02:23;;;;;;;14.73;9.00;;;;;;;-143.84;74.06;45191.88;5010958;28;20449;-72
2023/01/24 09:04:50;;;;;;;18.50;10.63;;;;;;;-143.84;73.70;45216.63;5011219;28;20465;-72
2023/01/24 09:07:17;;;;;;;14.90;10.10;;;;;;;-143.84;72.96;45220.44;5011087;28;20456;-72
2023/01/24 09:09:44;;;;;;;12.67;8.97;;;;;;;-143.84;72.85;45231.88;5010731;28;21431;-72
2023/01/24 09:12:13;;;;;;;14.50;9.80;;;;;;;-143.84;72.90;45176.66;5010802;28;20449;-72
2023/01/24 09:14:40;;;;;;;14.40;9.47;;;;;;;-143.84;73.30;45220.44;5010928;28;20454;-72
2023/01/24 09:17:07;;;;;;;19.10;10.80;;;;;;;-143.84;74.06;45197.59;5010619;28;20475;-72
2023/01/24 09:19:35;;;;;;;15.77;9.53;;;;;;;-143.84;73.73;45170.94;5011041;28;20438;-72
2023/01/24 09:22:02;;;;;;;11.80;7.80;;;;;;;-143.84;73.66;45189.97;5011527;28;20466;-77
2023/01/24 09:24:30;;;;;;;15.63;9.50;;;;;;;-143.84;73.25;45191.88;5011126;28;20534;-77
2023/01/24 09:26:57;;;;;;;18.93;10.00;;;;;;;-143.84;72.24;45220.44;5011349;28;20452;-77
2023/01/24 09:29:25;;;;;;;15.40;9.30;;;;;;;-143.84;71.72;45189.97;5010612;28;20474;-77
2023/01/24 09:31:54;;;;;;;17.10;9.23;;;;;;;-143.84;71.31;45210.94;5011027;28;20455;-76
2023/01/24 09:34:22;;;;;;;13.87;9.33;;;;;;;-143.84;71.65;45222.34;5011466;28;20482;-76
2023/01/24 09:36:50;;;;;;;11.90;7.83;;;;;;;-143.84;70.99;45229.97;5010685;28;20432;-73
2023/01/24 09:39:17;;;;;;;12.77;7.93;;;;;;;-143.84;70.73;45231.88;5010398;28;20530;-72
2023/01/24 09:41:59;;;;;;;13.63;8.67;;;;;;;-143.84;70.58;45231.88;5010294;28;21068;-72
2023/01/24 09:44:38;;;;;;;14.20;8.57;;;;;;;-143.84;70.52;45201.41;5010450;28;20509;-72
2023/01/24 09:47:17;;;;;;;13.47;8.60;;;;;;;-143.84;70.52;45229.97;5010293;28;20455;-72
2023/01/24 09:49:50;;;;;;;15.20;9.60;;;;;;;-143.84;70.24;45214.72;5010469;28;20447;-72
2023/01/24 09:52:27;;;;;;;14.17;9.20;;;;;;;-143.84;69.47;45226.16;5009827;28;20523;-72
2023/01/24 09:55:02;;;;;;;13.37;9.23;;;;;;;-143.84;69.57;45220.44;5010352;28;20465;-72
2023/01/24 09:57:33;;;;;;;13.13;8.40;;;;;;;-143.84;69.73;45209.03;5009784;28;20569;-72
2023/01/24 10:00:11;;;;;;;12.10;7.87;;;;;;;-143.84;69.80;45235.69;5009958;28;20443;-72
2023/01/24 10:02:38;;;;;;;19.30;8.00;;;;;;;-143.84;69.18;45220.44;5010151;28;20430;-72
2023/01/24 10:05:06;;;;;;;12.27;8.10;;;;;;;-143.84;68.78;45226.16;5009922;28;20860;-72
2023/01/24 10:08:23;;;;;;;12.47;8.10;;;;;;;-143.84;68.93;45243.31;5010604;28;20442;-76
2023/01/24 10:10:59;;;;;;;16.23;7.43;;;;;;;-143.84;68.72;45228.06;4941941;29;20513;-77
2023/01/24 10:13:42;;;;;;;13.30;7.40;;;;;;;-143.84;68.49;45226.16;5000232;28;20443;-77
2023/01/24 10:16:26;;;;;;;12.53;8.13;;;;;;;-143.84;68.67;45247.09;5009309;28;20514;-77
2023/01/24 10:19:11;;;;;;;17.00;9.13;;;;;;;-143.84;69.28;45262.34;5009639;28;20545;-72
2023/01/24 10:22:05;;;;;;;17.10;9.67;;;;;;;-143.84;68.68;45220.44;5009580;28;20454;-72
2023/01/24 10:24:36;;;;;;;12.90;8.23;;;;;;;-143.84;68.32;45201.41;5009101;28;20501;-72
2023/01/24 10:27:15;;;;;;;16.60;8.97;;;;;;;-143.84;68.09;45247.09;5008999;28;20440;-72
2023/01/24 10:29:44;;;;;;;15.83;9.00;;;;;;;-143.84;68.23;45222.34;5009555;28;20439;-72
2023/01/24 10:32:17;;;;;;;17.87;8.83;;;;;;;-143.84;68.03;45252.81;5009835;28;20968;-72
2023/01/24 10:34:47;;;;;;;15.40;8.27;;;;;;;-143.84;68.17;45224.25;5009063;28;20447;-72
2023/01/24 10:37:22;;;;;;;12.13;9.07;;;;;;;-143.84;68.39;45231.88;5008526;28;20559;-72
2023/01/24 10:39:50;;;;;;;12.67;7.30;;;;;;;-143.84;68.04;45224.25;5009310;28;20972;-72
2023/01/24 10:42:23;;;;;;;10.27;8.10;;;;;;;-143.84;67.10;45205.22;5009082;28;20490;-72
2023/01/24 10:44:52;;;;;;;13.03;7.90;;;;;;;-143.84;66.04;45216.63;5009092;28;20455;-72
2023/01/24 10:47:51;;;;;;;11.30;7.70;;;;;;;-143.84;65.89;45229.97;5009049;28;20474;-72
2023/01/24 10:50:19;;;;;;;10.83;7.87;;;;;;;-143.84;65.59;45245.19;4975575;28;20837;-72
2023/01/24 10:52:48;;;;;;;12.30;7.13;;;;;;;-143.84;66.07;45258.53;5009128;28;20447;-72
2023/01/24 10:55:35;;;;;;;11.77;7.00;;;;;;;-143.84;66.40;45233.78;5009336;28;20882;-72
2023/01/24 10:58:04;;;;;;;12.10;7.40;;;;;;;-143.84;66.54;45205.22;5009060;28;20486;-72
2023/01/24 11:00:35;;;;;;;12.73;8.00;;;;;;;-143.84;65.52;45269.97;5009185;28;20506;-72
2023/01/24 11:03:05;;;;;;;9.10;7.43;;;;;;;-143.84;65.75;45262.34;5008762;28;20448;-72
2023/01/24 11:05:39;;;;;;;14.13;8.67;;;;;;;-143.84;65.62;45231.88;5008844;28;20447;-72
2023/01/24 11:08:06;;;;;;;10.30;7.73;;;;;;;-143.84;65.86;45231.88;5008982;28;20462;-72
2023/01/24 11:10:38;;;;;;;13.30;8.50;;;;;;;-143.84;65.74;45254.72;5008687;28;20539;-72
2023/01/24 11:13:26;;;;;;;14.33;9.50;;;;;;;-143.84;66.40;45222.34;5009105;28;20450;-72
2023/01/24 11:16:00;;;;;;;15.90;9.57;;;;;;;-143.84;65.61;45218.53;5009039;28;20510;-72
2023/01/24 11:18:30;;;;;;;14.43;8.73;;;;;;;-143.84;65.73;45243.31;5008867;28;20821;-72
2023/01/24 11:21:13;;;;;;;11.93;8.50;;;;;;;-143.84;65.59;45226.16;5008900;28;20452;-72
2023/01/24 11:23:41;;;;;;;11.33;8.13;;;;;;;-143.84;66.10;45256.63;5008965;28;20514;-72
2023/01/24 11:26:22;;;;;;;11.90;8.57;;;;;;;-143.84;66.29;45235.69;5008965;28;20435;-72
2023/01/24 11:29:01;;;;;;;12.30;8.17;;;;;;;-143.84;65.63;45243.31;5009095;28;21234;-72
2023/01/24 11:31:36;;;;;;;12.30;8.70;;;;;;;-143.84;65.45;45250.91;5008654;28;20505;-72
2023/01/24 11:34:36;;;;;;;14.07;8.50;;;;;;;-143.84;66.04;45210.94;5008615;28;20976;-72
2023/01/24 11:37:18;;;;;;;12.77;7.83;;;;;;;-143.84;66.79;45218.53;5008641;28;20478;-72
2023/01/24 11:39:54;;;;;;;12.63;8.47;;;;;;;-143.84;66.73;45241.41;5008817;28;20443;-72
2023/01/24 11:42:32;;;;;;;12.87;8.80;;;;;;;-143.84;67.01;45210.94;5008773;28;20438;-72
2023/01/24 11:45:30;;;;;;;12.73;8.33;;;;;;;-143.84;67.04;45235.69;5008972;28;20531;-72
2023/01/24 11:48:09;;;;;;;14.83;9.37;;;;;;;-143.84;68.03;45229.97;4974910;28;20491;-72
2023/01/24 11:50:53;;;;;;;13.80;8.77;;;;;;;-143.84;68.80;45249.00;5008660;28;20453;-73